St Petersburg Clearwater International Airport
KPIE : now visible

Airfield :











YOU CAN JOIN US ON...

 
LOGIN :

Register | Disclaimer

   EN    FR    IT 

 









Legend :    VFR   Marginal VFR   IFR   Intensive IFR   Very Intensive IFR
Visi :
Ceiling :
>= 8 km
>= 3000ft
5 to 8 km
1000 to 3000 ft
1500m to 5 km
500 to 1000 ft
800 to 1500m
200 to 500 ft
< 800m
< 200 ft
Symbols :   Thunderstorms  Fog  Heavy snow  Heavy precipitations  Wind > 20 kt







- Airport Elevation : 11 ft
- IATA code : PIE


KPIE - St Petersburg Clearwater International

CURRENT METAR :
  • 181553Z 15012G19KT 10SM CLR 27/19 A2999 RMK AO2 SLP156 T02670189

EXPIRED METARs :
  • 181453Z 12012KT 10SM CLR 26/17 A3000 RMK AO2 SLP160 T02560172 53004
  • 181353Z 15010KT 10SM CLR 24/16 A2999 RMK AO2 SLP156 T02440161

TAF KPIE
Valid from the 18 at 12:00 until the 19 at 12:00 UTC


181136Z 1812/1912 14006KT P6SM SCT050
FM181500 15012G18KT P6SM FEW050 SCT250
FM182100 19011KT P6SM FEW050 SCT250
FM190900 17013G23KT P6SM VCSH SCT025 BKN140
FM191100 18015G25KT 6SM SHRA VCTS BKN030CB OVC050
KZMA FIR / North America



MET'MAP, your aeronautical weather chart ! - Copyright ORBIFLY December 2007 - Disclaimer

ORBIFLY MET'MAP TEAM :

Programming & Development : Alexandra Zaïnal
Concept & Development : Baudouin d'Aumeries
Co-Development & Prog : Marc-Olivier Méhu
Technical & hardware support : Manuel Goepfert

Contact : metmap@orbifly.com




SOURCES & CREDITS :

   NOAA       Earth
Advisory